Time;durP1;ratioP1;P1;durP2;ratioP2;P2;SDS_P1;SDS_P2;PMS_P1;PMS_P2;Temp;Humidity;BMP_temperature;BMP_pressure;BME280_temperature;BME280_humidity;BME280_pressure;Samples;Min_cycle;Max_cycle;Signal;HPM_P1;HPM_P2
2023/09/28 00:00:43;;;;;;;;;;;;;;;16.53;72.36;99583.84;5081085;28;19967;-68
2023/09/28 00:03:10;;;;;;;;;;;;;;;16.87;70.98;99577.66;5078225;28;19970;-68
2023/09/28 00:05:35;;;;;;;;;;;;;;;16.87;70.89;99583.31;5095463;28;19961;-69
2023/09/28 00:08:01;;;;;;;;;;;;;;;17.01;70.03;99577.09;5093146;28;19924;-68
2023/09/28 00:10:27;;;;;;;;;;;;;;;17.12;69.61;99580.94;5092779;28;19916;-68
2023/09/28 00:12:53;;;;;;;;;;;;;;;17.07;69.66;99579.25;5079748;28;19916;-68
2023/09/28 00:15:21;;;;;;;;;;;;;;;17.12;69.29;99575.28;5077220;28;19917;-68
2023/09/28 00:17:51;;;;;;;;;;;;;;;17.13;69.21;99565.59;5092338;28;20405;-68
2023/09/28 00:20:17;;;;;;;;;;;;;;;17.07;69.39;99567.94;5095299;28;19912;-68
2023/09/28 00:22:51;;;;;;;;;;;;;;;16.90;70.03;99563.59;5082679;28;19997;-67
2023/09/28 00:25:17;;;;;;;;;;;;;;;16.94;69.75;99567.28;5083336;28;19920;-68
2023/09/28 00:27:46;;;;;;;;;;;;;;;17.06;69.31;99557.03;5091627;28;19923;-68
2023/09/28 00:30:13;;;;;;;;;;;;;;;17.21;68.78;99556.06;5112855;28;19912;-68
2023/09/28 00:32:39;;;;;;;;;;;;;;;17.30;68.44;99555.00;5111562;28;19912;-68
2023/09/28 00:35:06;;;;;;;;;;;;;;;17.21;68.61;99563.75;5094988;28;20465;-68
2023/09/28 00:37:31;;;;;;;;;;;;;;;17.41;68.14;99558.81;5095073;28;19916;-68
2023/09/28 00:39:57;;;;;;;;;;;;;;;17.56;67.77;99556.22;5092853;28;19969;-68
2023/09/28 00:42:22;;;;;;;;;;;;;;;17.74;66.76;99562.97;5093592;28;20019;-69
2023/09/28 00:44:48;;;;;;;;;;;;;;;17.95;66.47;99561.59;5093190;28;19924;-68
2023/09/28 00:47:13;;;;;;;;;;;;;;;18.04;66.60;99561.34;5094896;28;19912;-68
2023/09/28 00:49:39;;;;;;;;;;;;;;;18.14;66.62;99569.16;5094835;28;19912;-67
2023/09/28 00:52:07;;;;;;;;;;;;;;;18.16;66.73;99568.78;5094744;28;19920;-68
2023/09/28 00:54:33;;;;;;;;;;;;;;;18.22;66.76;99559.56;5092886;28;19916;-68
2023/09/28 00:56:58;;;;;;;;;;;;;;;18.23;66.90;99554.75;5094368;28;20019;-68
2023/09/28 00:59:24;;;;;;;;;;;;;;;18.36;66.59;99561.78;5089590;28;19916;-68
2023/09/28 01:01:50;;;;;;;;;;;;;;;18.31;66.66;99559.28;5078122;28;20387;-68
2023/09/28 01:04:16;;;;;;;;;;;;;;;18.46;66.55;99559.44;5072882;28;20283;-68
2023/09/28 01:06:41;;;;;;;;;;;;;;;18.48;66.27;99560.69;5074126;28;19943;-68
2023/09/28 01:09:08;;;;;;;;;;;;;;;18.14;67.91;99557.03;5074139;28;19912;-68
2023/09/28 01:11:34;;;;;;;;;;;;;;;18.28;67.64;99564.88;5074179;28;19917;-68
2023/09/28 01:14:01;;;;;;;;;;;;;;;18.38;67.16;99567.88;5075045;28;19995;-68
2023/09/28 01:16:26;;;;;;;;;;;;;;;18.31;67.31;99566.97;5075494;28;20309;-68
2023/09/28 01:18:51;;;;;;;;;;;;;;;18.46;67.03;99560.25;5093950;28;19916;-68
2023/09/28 01:21:17;;;;;;;;;;;;;;;18.36;67.07;99558.13;5093604;28;19912;-68
2023/09/28 01:23:43;;;;;;;;;;;;;;;18.50;66.66;99554.66;5077274;28;20460;-68
2023/09/28 01:26:08;;;;;;;;;;;;;;;18.56;66.61;99557.94;5092895;28;19920;-68
2023/09/28 01:28:34;;;;;;;;;;;;;;;18.40;66.56;99555.34;5091783;28;20302;-67
2023/09/28 01:30:59;;;;;;;;;;;;;;;18.45;66.39;99547.31;5091936;28;20003;-68
2023/09/28 01:33:24;;;;;;;;;;;;;;;18.47;66.10;99546.94;5092710;28;19916;-68
2023/09/28 01:35:50;;;;;;;;;;;;;;;18.28;66.44;99551.56;5087204;28;19916;-68
2023/09/28 01:38:31;;;;;;;;;;;;;;;18.23;66.55;99551.91;5093631;28;19977;-68
2023/09/28 01:40:56;;;;;;;;;;;;;;;18.08;67.19;99554.53;5092626;28;19919;-68
2023/09/28 01:43:22;;;;;;;;;;;;;;;18.08;67.38;99548.06;5093350;28;20322;-68
2023/09/28 01:45:47;;;;;;;;;;;;;;;17.82;68.08;99544.88;5093507;28;19913;-68
2023/09/28 01:48:14;;;;;;;;;;;;;;;17.51;69.10;99546.88;5085683;28;20302;-68
2023/09/28 01:50:39;;;;;;;;;;;;;;;17.29;70.32;99539.25;5075278;28;19944;-68
2023/09/28 01:53:04;;;;;;;;;;;;;;;17.28;70.22;99538.41;5090397;28;19955;-68
2023/09/28 01:55:30;;;;;;;;;;;;;;;17.09;71.25;99539.31;5092754;28;20257;-68
2023/09/28 01:57:55;;;;;;;;;;;;;;;17.18;70.76;99531.41;5087058;28;19916;-68
2023/09/28 02:00:22;;;;;;;;;;;;;;;17.20;70.46;99548.00;5073579;28;19925;-68
2023/09/28 02:02:48;;;;;;;;;;;;;;;17.08;70.85;99538.50;5091436;28;20318;-68
2023/09/28 02:05:22;;;;;;;;;;;;;;;16.68;72.48;99534.97;5092585;28;19920;-68
2023/09/28 02:07:48;;;;;;;;;;;;;;;16.82;71.93;99534.38;5090726;28;20395;-68
2023/09/28 02:10:14;;;;;;;;;;;;;;;16.73;72.07;99536.66;5082818;28;19928;-68
2023/09/28 02:12:40;;;;;;;;;;;;;;;16.61;72.75;99531.19;5073997;28;19924;-68
2023/09/28 02:15:08;;;;;;;;;;;;;;;16.77;71.99;99529.06;5074015;28;20011;-68
2023/09/28 02:17:33;;;;;;;;;;;;;;;16.78;72.19;99532.72;5083783;28;19965;-68
2023/09/28 02:19:58;;;;;;;;;;;;;;;16.76;72.34;99540.72;5082567;28;19916;-68
2023/09/28 02:22:24;;;;;;;;;;;;;;;16.68;72.84;99548.25;5087766;28;19970;-68
2023/09/28 02:24:51;;;;;;;;;;;;;;;16.68;72.78;99545.44;5080145;28;19924;-68
2023/09/28 02:27:17;;;;;;;;;;;;;;;16.68;73.06;99548.25;5079815;28;20411;-67
2023/09/28 02:29:43;;;;;;;;;;;;;;;16.73;72.75;99545.13;5073626;28;19924;-68
2023/09/28 02:32:08;;;;;;;;;;;;;;;16.79;72.50;99548.47;5084891;28;19925;-68
2023/09/28 02:34:34;;;;;;;;;;;;;;;16.81;72.08;99546.06;5072603;28;19912;-68
2023/09/28 02:37:01;;;;;;;;;;;;;;;16.80;72.01;99550.09;5081736;28;19955;-68
2023/09/28 02:39:28;;;;;;;;;;;;;;;16.66;72.72;99550.63;5090526;28;19977;-68
2023/09/28 02:41:54;;;;;;;;;;;;;;;16.63;72.84;99559.88;5091005;28;20003;-68
2023/09/28 02:44:19;;;;;;;;;;;;;;;16.68;72.73;99549.06;5092630;28;20011;-68
2023/09/28 02:46:44;;;;;;;;;;;;;;;16.62;72.58;99550.56;5092240;28;19912;-68
2023/09/28 02:49:09;;;;;;;;;;;;;;;16.51;73.31;99555.19;5090893;28;19927;-68
2023/09/28 02:51:35;;;;;;;;;;;;;;;16.78;72.17;99544.00;5092353;28;19999;-68
2023/09/28 02:54:00;;;;;;;;;;;;;;;16.69;72.43;99544.22;5079715;28;19916;-68
2023/09/28 02:56:25;;;;;;;;;;;;;;;16.77;72.36;99550.81;5083929;28;19989;-68
2023/09/28 02:58:51;;;;;;;;;;;;;;;16.74;72.10;99560.06;5090049;28;19927;-68
2023/09/28 03:01:17;;;;;;;;;;;;;;;16.58;73.04;99555.34;5092234;28;20014;-68
2023/09/28 03:03:42;;;;;;;;;;;;;;;16.55;72.96;99558.91;5091094;28;20283;-68
2023/09/28 03:06:07;;;;;;;;;;;;;;;16.45;73.48;99563.13;5091624;28;19916;-68
2023/09/28 03:08:34;;;;;;;;;;;;;;;16.55;73.08;99565.34;5084606;28;20495;-68
2023/09/28 03:11:01;;;;;;;;;;;;;;;16.73;72.67;99558.41;5089875;28;19920;-68
2023/09/28 03:13:26;;;;;;;;;;;;;;;16.86;72.16;99554.22;5084658;28;19939;-68
2023/09/28 03:15:52;;;;;;;;;;;;;;;16.76;72.70;99560.50;5087468;28;20360;-68
2023/09/28 03:18:17;;;;;;;;;;;;;;;16.64;73.13;99564.31;5071758;28;19955;-68
2023/09/28 03:20:44;;;;;;;;;;;;;;;16.52;73.42;99568.94;5077994;28;19916;-68
2023/09/28 03:23:09;;;;;;;;;;;;;;;16.52;73.67;99566.13;5085626;28;20007;-67
2023/09/28 03:25:35;;;;;;;;;;;;;;;16.48;74.11;99558.75;5075893;28;20007;-68
2023/09/28 03:28:01;;;;;;;;;;;;;;;16.37;74.83;99556.53;5079770;28;19920;-68
2023/09/28 03:30:26;;;;;;;;;;;;;;;16.49;74.60;99557.56;5080493;28;19922;-68
2023/09/28 03:32:53;;;;;;;;;;;;;;;16.61;73.88;99557.41;5087296;28;19916;-68
2023/09/28 03:35:19;;;;;;;;;;;;;;;16.61;74.02;99557.41;5078573;28;20326;-68
2023/09/28 03:37:45;;;;;;;;;;;;;;;16.69;73.40;99570.47;5079404;28;19924;-68
2023/09/28 03:40:11;;;;;;;;;;;;;;;16.60;74.24;99574.75;5081711;28;19939;-68
2023/09/28 03:42:37;;;;;;;;;;;;;;;16.88;73.01;99563.13;5089069;28;19916;-68
2023/09/28 03:45:08;;;;;;;;;;;;;;;16.83;73.17;99560.63;5086813;28;19920;-68
2023/09/28 03:47:34;;;;;;;;;;;;;;;16.72;73.67;99559.63;5078363;28;19966;-68
2023/09/28 03:50:00;;;;;;;;;;;;;;;16.72;73.75;99562.44;5073996;28;19923;-68
2023/09/28 03:52:25;;;;;;;;;;;;;;;16.66;74.02;99562.75;5071447;28;19916;-68
2023/09/28 03:54:51;;;;;;;;;;;;;;;16.47;74.58;99562.78;5070965;28;20306;-68
2023/09/28 03:57:17;;;;;;;;;;;;;;;16.33;75.34;99564.13;5090264;28;20375;-72
2023/09/28 03:59:42;;;;;;;;;;;;;;;16.40;74.82;99567.06;5091412;28;19927;-72
2023/09/28 04:02:08;;;;;;;;;;;;;;;16.42;74.66;99567.53;5086602;28;19916;-71
2023/09/28 04:04:33;;;;;;;;;;;;;;;16.44;74.69;99572.00;5084658;28;19920;-73
2023/09/28 04:06:58;;;;;;;;;;;;;;;16.48;74.65;99568.06;5090308;28;19912;-73
2023/09/28 04:09:23;;;;;;;;;;;;;;;16.55;74.27;99573.84;5086393;28;19916;-78
2023/09/28 04:11:49;;;;;;;;;;;;;;;16.59;74.06;99565.44;5073711;28;19966;-76
2023/09/28 04:14:14;;;;;;;;;;;;;;;16.69;73.34;99564.81;5079363;28;19916;-77
2023/09/28 04:16:39;;;;;;;;;;;;;;;16.71;73.25;99570.09;5071254;28;19916;-76
2023/09/28 04:19:05;;;;;;;;;;;;;;;16.79;73.04;99566.22;5084821;28;20294;-77
2023/09/28 04:21:31;;;;;;;;;;;;;;;16.84;72.82;99576.38;5110053;28;19912;-77
2023/09/28 04:23:56;;;;;;;;;;;;;;;16.85;72.40;99572.38;5089099;28;19989;-77
2023/09/28 04:26:21;;;;;;;;;;;;;;;16.94;71.82;99566.47;5085490;28;19942;-75
2023/09/28 04:28:47;;;;;;;;;;;;;;;16.96;72.07;99567.72;5091281;28;19993;-74
2023/09/28 04:31:12;;;;;;;;;;;;;;;17.01;71.82;99569.47;5091228;28;19966;-73
2023/09/28 04:33:37;;;;;;;;;;;;;;;17.22;70.94;99571.03;5087226;28;20338;-73
2023/09/28 04:36:02;;;;;;;;;;;;;;;17.16;70.59;99572.53;5087210;28;19916;-73
2023/09/28 04:38:28;;;;;;;;;;;;;;;17.06;70.71;99577.59;5073586;28;19916;-73
2023/09/28 04:40:53;;;;;;;;;;;;;;;17.09;70.67;99578.88;5068561;28;19923;-73
2023/09/28 04:43:19;;;;;;;;;;;;;;;16.95;70.86;99580.22;5078320;28;20455;-73
2023/09/28 04:45:44;;;;;;;;;;;;;;;17.02;70.82;99584.41;5089083;28;19916;-73
2023/09/28 04:48:09;;;;;;;;;;;;;;;17.21;70.02;99584.34;5090562;28;19939;-73
2023/09/28 04:50:35;;;;;;;;;;;;;;;17.19;70.25;99589.56;5089199;28;20011;-73
2023/09/28 04:53:00;;;;;;;;;;;;;;;17.25;70.04;99585.22;5090625;28;19916;-73
2023/09/28 04:55:25;;;;;;;;;;;;;;;17.36;70.10;99590.22;5088249;28;19916;-73
2023/09/28 04:57:53;;;;;;;;;;;;;;;17.49;69.54;99593.66;5086815;28;19970;-72
2023/09/28 05:00:18;;;;;;;;;;;;;;;17.52;69.10;99592.91;5087049;28;19968;-72
2023/09/28 05:02:47;;;;;;;;;;;;;;;17.64;68.87;99597.56;5083836;28;20384;-70
2023/09/28 05:05:12;;;;;;;;;;;;;;;17.62;68.58;99594.28;5074173;28;20016;-69
2023/09/28 05:07:38;;;;;;;;;;;;;;;17.63;68.54;99591.06;5084045;28;20446;-69
2023/09/28 05:10:04;;;;;;;;;;;;;;;17.60;68.51;99591.00;5079077;28;20011;-72
2023/09/28 05:12:29;;;;;;;;;;;;;;;17.76;68.32;99594.50;5094461;28;19919;-73
2023/09/28 05:14:54;;;;;;;;;;;;;;;17.53;68.51;99586.06;5077232;28;19917;-73
2023/09/28 05:17:20;;;;;;;;;;;;;;;17.44;69.12;99599.66;5083073;28;20015;-73
2023/09/28 05:19:45;;;;;;;;;;;;;;;17.31;69.44;99596.22;5088578;28;20280;-73
2023/09/28 05:22:11;;;;;;;;;;;;;;;17.46;69.29;99612.19;5094158;28;20354;-74
2023/09/28 05:24:36;;;;;;;;;;;;;;;17.56;68.86;99607.09;5092513;28;19920;-73
2023/09/28 05:27:02;;;;;;;;;;;;;;;17.70;68.31;99618.63;5094110;28;19919;-73
2023/09/28 05:29:29;;;;;;;;;;;;;;;17.80;68.07;99620.03;5089134;28;19924;-73
2023/09/28 05:31:55;;;;;;;;;;;;;;;18.03;67.33;99619.97;5086831;28;19965;-73
2023/09/28 05:34:20;;;;;;;;;;;;;;;18.20;67.43;99612.09;5085294;28;20280;-73
2023/09/28 05:36:45;;;;;;;;;;;;;;;18.28;67.28;99613.84;5087928;28;19920;-73
2023/09/28 05:39:11;;;;;;;;;;;;;;;18.19;67.55;99616.13;5089426;28;19920;-73
2023/09/28 05:41:36;;;;;;;;;;;;;;;17.94;67.31;99619.41;5082544;28;19916;-73
2023/09/28 05:44:01;;;;;;;;;;;;;;;17.51;68.56;99620.38;5089903;28;20016;-73
2023/09/28 05:46:27;;;;;;;;;;;;;;;17.27;69.43;99618.75;5079287;28;20002;-69
2023/09/28 05:48:52;;;;;;;;;;;;;;;17.21;69.85;99614.63;5082593;28;19999;-73
2023/09/28 05:51:17;;;;;;;;;;;;;;;17.44;69.39;99623.06;5079715;28;20301;-73
2023/09/28 05:53:43;;;;;;;;;;;;;;;17.47;68.93;99616.66;5105584;28;19916;-73
2023/09/28 05:56:08;;;;;;;;;;;;;;;17.39;69.31;99615.72;5082896;28;20460;-71
2023/09/28 05:58:33;;;;;;;;;;;;;;;17.41;69.20;99612.53;5085817;28;19912;-73
2023/09/28 06:01:06;;;;;;;;;;;;;;;17.41;69.18;99615.34;5072501;28;19920;-71
2023/09/28 06:03:31;;;;;;;;;;;;;;;17.45;69.39;99618.25;5072898;28;20522;-70
2023/09/28 06:05:56;;;;;;;;;;;;;;;17.20;70.38;99618.66;5074560;28;19923;-70
2023/09/28 06:08:22;;;;;;;;;;;;;;;17.37;70.24;99617.28;5090501;28;19977;-71
2023/09/28 06:10:48;;;;;;;;;;;;;;;17.58;69.12;99616.84;5086856;28;19916;-69
2023/09/28 06:13:13;;;;;;;;;;;;;;;17.56;69.11;99619.25;5081394;28;19916;-69
2023/09/28 06:15:39;;;;;;;;;;;;;;;17.66;68.21;99618.56;5074698;28;19920;-72
2023/09/28 06:18:04;;;;;;;;;;;;;;;17.74;67.67;99619.53;5100015;28;20393;-69
2023/09/28 06:20:29;;;;;;;;;;;;;;;17.90;67.11;99627.03;5108824;28;19915;-73
2023/09/28 06:22:55;;;;;;;;;;;;;;;18.00;66.23;99629.19;5094468;28;19916;-73
2023/09/28 06:25:20;;;;;;;;;;;;;;;18.04;66.17;99632.09;5089869;28;19924;-72
2023/09/28 06:27:47;;;;;;;;;;;;;;;18.00;66.61;99631.19;5089339;28;20061;-72
2023/09/28 06:30:12;;;;;;;;;;;;;;;18.23;65.80;99634.00;5090418;28;19916;-70
2023/09/28 06:32:38;;;;;;;;;;;;;;;18.27;65.41;99637.69;5088123;28;19923;-72
2023/09/28 06:35:03;;;;;;;;;;;;;;;18.28;64.87;99632.81;5082735;28;20009;-70
2023/09/28 06:37:29;;;;;;;;;;;;;;;18.17;65.50;99641.19;5073361;28;19927;-71
2023/09/28 06:39:55;;;;;;;;;;;;;;;18.44;64.76;99644.78;5084721;28;19920;-71
2023/09/28 06:42:20;;;;;;;;;;;;;;;18.53;64.28;99641.66;5076300;28;19920;-70
2023/09/28 06:44:45;;;;;;;;;;;;;;;18.48;64.66;99645.63;5071539;28;19924;-73
2023/09/28 06:47:11;;;;;;;;;;;;;;;18.78;63.82;99646.81;5073506;28;20019;-71
2023/09/28 06:49:36;;;;;;;;;;;;;;;18.88;63.58;99648.13;5074066;28;19999;-71
2023/09/28 06:52:03;;;;;;;;;;;;;;;18.89;63.54;99644.13;5073189;28;20428;-69
2023/09/28 06:54:28;;;;;;;;;;;;;;;18.94;63.78;99655.91;5074975;28;19928;-70
2023/09/28 06:56:54;;;;;;;;;;;;;;;19.11;63.34;99650.84;5070555;28;19921;-70
2023/09/28 06:59:19;;;;;;;;;;;;;;;19.08;63.47;99652.44;5081431;28;19928;-71
2023/09/28 07:01:44;;;;;;;;;;;;;;;19.21;63.98;99655.00;5068866;28;19916;-72
2023/09/28 07:04:10;;;;;;;;;;;;;;;19.41;62.95;99649.09;5070024;28;19920;-72
2023/09/28 07:06:35;;;;;;;;;;;;;;;19.46;63.08;99646.72;5080064;28;19916;-72
2023/09/28 07:09:02;;;;;;;;;;;;;;;19.14;62.76;99655.72;5087058;28;20676;-72
2023/09/28 07:11:27;;;;;;;;;;;;;;;19.20;62.87;99665.53;5081114;28;19973;-72
2023/09/28 07:13:53;;;;;;;;;;;;;;;19.36;62.72;99667.28;5071736;28;20582;-72
2023/09/28 07:16:18;;;;;;;;;;;;;;;19.37;61.83;99666.09;5072729;28;19925;-72
2023/09/28 07:18:44;;;;;;;;;;;;;;;19.36;61.77;99658.78;5071202;28;20050;-72
2023/09/28 07:21:09;;;;;;;;;;;;;;;19.61;61.57;99673.22;5089195;28;19976;-72
2023/09/28 07:23:36;;;;;;;;;;;;;;;19.84;61.28;99672.16;5091859;28;19924;-72
2023/09/28 07:26:02;;;;;;;;;;;;;;;19.97;60.70;99669.84;5090761;28;20356;-72
2023/09/28 07:28:28;;;;;;;;;;;;;;;20.09;59.28;99677.25;5091966;28;19965;-72
2023/09/28 07:30:53;;;;;;;;;;;;;;;19.88;59.94;99670.16;5091870;28;19962;-72
2023/09/28 07:33:18;;;;;;;;;;;;;;;20.00;59.43;99671.88;5082529;28;20359;-72
2023/09/28 07:35:44;;;;;;;;;;;;;;;20.21;59.33;99678.94;5071699;28;19916;-73
2023/09/28 07:38:09;;;;;;;;;;;;;;;20.51;58.95;99677.88;5071545;28;19919;-72
2023/09/28 07:40:35;;;;;;;;;;;;;;;20.46;58.35;99679.09;5071736;28;19912;-72
2023/09/28 07:43:00;;;;;;;;;;;;;;;20.46;57.58;99670.56;5070240;28;19913;-72
2023/09/28 07:45:25;;;;;;;;;;;;;;;20.44;57.70;99675.81;5071481;28;19967;-73
2023/09/28 07:47:51;;;;;;;;;;;;;;;20.44;56.88;99669.31;5078453;28;20434;-72
2023/09/28 07:50:16;;;;;;;;;;;;;;;20.74;56.68;99688.13;5091655;28;19916;-72
2023/09/28 07:52:42;;;;;;;;;;;;;;;20.57;55.90;99670.59;5091636;28;19912;-73
2023/09/28 07:55:07;;;;;;;;;;;;;;;20.85;55.13;99674.00;5087254;28;20025;-72
2023/09/28 07:57:33;;;;;;;;;;;;;;;21.00;54.69;99672.81;5071531;28;20398;-72
2023/09/28 07:59:59;;;;;;;;;;;;;;;21.16;53.68;99674.47;5074051;28;19920;-72
2023/09/28 08:02:25;;;;;;;;;;;;;;;21.27;52.73;99669.63;5091688;28;20378;-73
2023/09/28 08:04:51;;;;;;;;;;;;;;;21.52;52.91;99674.53;5091482;28;19916;-72
2023/09/28 08:07:17;;;;;;;;;;;;;;;21.79;53.01;99668.50;5091646;28;19951;-73
2023/09/28 08:09:42;;;;;;;;;;;;;;;22.15;52.44;99654.19;5081297;28;19956;-72
2023/09/28 08:12:08;;;;;;;;;;;;;;;22.32;51.09;99653.72;5071239;28;20311;-72
2023/09/28 08:14:34;;;;;;;;;;;;;;;22.07;50.22;99663.16;5071254;28;20349;-72
2023/09/28 08:16:59;;;;;;;;;;;;;;;21.91;49.90;99660.75;5071267;28;19924;-72
2023/09/28 08:19:24;;;;;;;;;;;;;;;21.91;50.18;99667.25;5071211;28;20374;-72
2023/09/28 08:21:50;;;;;;;;;;;;;;;21.93;49.36;99669.69;5071081;28;19916;-73
2023/09/28 08:24:15;;;;;;;;;;;;;;;22.12;49.65;99657.84;5079098;28;19955;-73
2023/09/28 08:26:40;;;;;;;;;;;;;;;22.29;49.19;99661.09;5094431;28;19916;-74
2023/09/28 08:29:06;;;;;;;;;;;;;;;22.26;49.04;99659.84;5095081;28;19916;-74
2023/09/28 08:31:32;;;;;;;;;;;;;;;22.46;48.10;99656.56;5084696;28;19916;-72
2023/09/28 08:34:00;;;;;;;;;;;;;;;22.70;48.43;99662.59;5074751;28;19916;-72
2023/09/28 08:36:29;;;;;;;;;;;;;;;22.87;47.49;99658.06;5073835;28;19941;-72
2023/09/28 08:38:54;;;;;;;;;;;;;;;23.06;47.20;99648.16;5074616;28;19920;-72
2023/09/28 08:41:26;;;;;;;;;;;;;;;23.12;46.46;99651.38;5074696;28;19912;-72
2023/09/28 08:43:54;;;;;;;;;;;;;;;23.20;45.71;99655.00;5074585;28;19960;-72
2023/09/28 08:46:20;;;;;;;;;;;;;;;23.23;46.05;99649.28;5090183;28;19999;-72
2023/09/28 08:48:47;;;;;;;;;;;;;;;23.08;46.48;99654.25;5074665;28;19924;-73
2023/09/28 08:51:13;;;;;;;;;;;;;;;23.17;45.51;99656.63;5074460;28;20382;-72
2023/09/28 08:53:38;;;;;;;;;;;;;;;23.21;45.30;99656.63;5075921;28;19931;-69
2023/09/28 08:56:04;;;;;;;;;;;;;;;23.17;45.04;99653.78;5087946;28;19925;-67
2023/09/28 08:58:33;;;;;;;;;;;;;;;23.25;45.02;99649.66;5074401;28;19912;-68
2023/09/28 09:00:58;;;;;;;;;;;;;;;23.31;44.99;99647.22;5073647;28;20434;-68
2023/09/28 09:03:24;;;;;;;;;;;;;;;23.31;44.67;99650.06;5074403;28;19947;-68
2023/09/28 09:05:50;;;;;;;;;;;;;;;23.34;45.42;99654.94;5074440;28;19913;-68
2023/09/28 09:08:16;;;;;;;;;;;;;;;23.31;45.11;99658.63;5073892;28;19912;-71
2023/09/28 09:10:41;;;;;;;;;;;;;;;23.39;45.26;99657.31;5084736;28;20015;-68
2023/09/28 09:13:14;;;;;;;;;;;;;;;23.35;45.19;99648.00;5083857;28;19974;-70
2023/09/28 09:15:42;;;;;;;;;;;;;;;23.44;45.07;99653.22;5076428;28;19916;-68
2023/09/28 09:18:07;;;;;;;;;;;;;;;23.62;45.16;99649.44;5079398;28;19923;-69
2023/09/28 09:20:33;;;;;;;;;;;;;;;23.68;44.09;99647.72;5080260;28;19917;-69
2023/09/28 09:23:18;;;;;;;;;;;;;;;23.68;44.16;99645.69;5073992;28;20379;-67
2023/09/28 09:25:45;;;;;;;;;;;;;;;23.79;43.48;99644.78;5073202;28;19916;-67
2023/09/28 09:28:12;;;;;;;;;;;;;;;23.84;43.79;99650.03;5072875;28;19947;-70
2023/09/28 09:30:37;;;;;;;;;;;;;;;23.94;44.18;99643.41;5078087;28;19917;-69
2023/09/28 09:33:04;;;;;;;;;;;;;;;24.05;43.90;99643.31;5091403;28;19919;-70
2023/09/28 09:35:30;;;;;;;;;;;;;;;24.33;43.37;99634.88;5071551;28;19916;-67
2023/09/28 09:37:55;;;;;;;;;;;;;;;24.34;43.25;99636.50;5071754;28;19920;-65
2023/09/28 09:40:21;;;;;;;;;;;;;;;24.37;43.11;99636.47;5072464;28;19920;-69
2023/09/28 09:42:46;;;;;;;;;;;;;;;24.59;42.84;99635.38;5073612;28;19919;-67
2023/09/28 09:45:12;;;;;;;;;;;;;;;24.10;43.32;99639.19;5089036;28;19983;-67
2023/09/28 09:47:43;;;;;;;;;;;;;;;24.21;43.54;99628.47;5073560;28;19920;-69
2023/09/28 09:50:08;;;;;;;;;;;;;;;24.35;43.54;99638.09;5086492;28;19916;-66
2023/09/28 09:52:34;;;;;;;;;;;;;;;24.45;43.39;99630.66;5093674;28;19934;-67
2023/09/28 09:54:59;;;;;;;;;;;;;;;24.61;43.31;99633.72;5093575;28;19985;-66
2023/09/28 09:57:29;;;;;;;;;;;;;;;24.67;42.76;99628.34;5093633;28;20477;-66
2023/09/28 09:59:57;;;;;;;;;;;;;;;24.35;42.99;99623.81;5078354;28;20466;-65
2023/09/28 10:02:26;;;;;;;;;;;;;;;24.44;43.36;99618.41;5079706;28;19977;-64
2023/09/28 10:04:54;;;;;;;;;;;;;;;24.58;42.90;99625.19;5083902;28;19935;-64
2023/09/28 10:07:23;;;;;;;;;;;;;;;24.38;43.17;99618.06;5079194;28;19920;-64
2023/09/28 10:09:50;;;;;;;;;;;;;;;24.69;44.15;99623.00;5079609;28;19920;-66
2023/09/28 10:12:16;;;;;;;;;;;;;;;24.79;43.87;99621.25;5086454;28;19924;-67
2023/09/28 10:14:41;;;;;;;;;;;;;;;24.80;43.33;99612.25;5079672;28;19989;-66
2023/09/28 10:17:09;;;;;;;;;;;;;;;24.83;42.83;99615.50;5078037;28;19924;-67
2023/09/28 10:19:34;;;;;;;;;;;;;;;24.61;43.37;99615.75;5076796;28;19927;-66
2023/09/28 10:22:00;;;;;;;;;;;;;;;24.78;43.78;99613.91;5081571;28;20620;-64
2023/09/28 10:24:30;;;;;;;;;;;;;;;25.12;43.42;99612.22;5083267;28;19924;-65
2023/09/28 10:26:55;;;;;;;;;;;;;;;25.54;43.08;99612.00;5081124;28;20409;-65
2023/09/28 10:29:28;;;;;;;;;;;;;;;25.82;41.44;99615.59;5088689;28;19924;-66
2023/09/28 10:31:54;;;;;;;;;;;;;;;25.83;41.77;99620.91;5086276;28;20326;-66
2023/09/28 10:34:20;;;;;;;;;;;;;;;25.88;42.13;99610.97;5087441;28;19916;-66
2023/09/28 10:37:13;;;;;;;;;;;;;;;25.86;41.40;99611.44;5088754;28;20349;-65
2023/09/28 10:39:41;;;;;;;;;;;;;;;25.69;41.81;99606.81;5079775;28;19951;-65
2023/09/28 10:42:15;;;;;;;;;;;;;;;25.58;42.13;99602.13;5077448;28;19920;-63
2023/09/28 10:44:50;;;;;;;;;;;;;;;25.44;42.44;99605.16;5088113;28;19923;-66
2023/09/28 10:47:15;;;;;;;;;;;;;;;25.29;42.69;99601.75;5086967;28;20322;-66
2023/09/28 10:49:40;;;;;;;;;;;;;;;25.46;42.04;99605.53;5087303;28;19934;-66
2023/09/28 10:52:08;;;;;;;;;;;;;;;25.49;41.88;99601.84;5090921;28;19916;-66
2023/09/28 10:54:33;;;;;;;;;;;;;;;25.68;41.61;99603.16;5090812;28;19919;-66
2023/09/28 10:57:01;;;;;;;;;;;;;;;25.81;41.46;99603.31;5090800;28;20015;-66
2023/09/28 10:59:27;;;;;;;;;;;;;;;25.85;41.69;99595.50;5085497;28;19941;-66
2023/09/28 11:01:53;;;;;;;;;;;;;;;25.59;41.65;99594.31;5090628;28;20318;-66
2023/09/28 11:04:19;;;;;;;;;;;;;;;25.74;41.58;99597.75;5088774;28;20428;-66
2023/09/28 11:06:44;;;;;;;;;;;;;;;25.78;42.29;99595.59;5088853;28;19958;-66
2023/09/28 11:09:11;;;;;;;;;;;;;;;25.67;41.59;99595.00;5090920;28;19912;-66
2023/09/28 11:11:40;;;;;;;;;;;;;;;25.83;41.78;99597.16;5089300;28;19912;-66
2023/09/28 11:14:06;;;;;;;;;;;;;;;25.81;40.65;99597.59;5090426;28;19912;-66
2023/09/28 11:16:34;;;;;;;;;;;;;;;25.78;41.39;99582.13;5087978;28;19916;-66
2023/09/28 11:19:00;;;;;;;;;;;;;;;26.05;41.25;99584.06;5093503;28;20527;-66
2023/09/28 11:21:26;;;;;;;;;;;;;;;26.11;40.76;99580.66;5080781;28;19916;-66
2023/09/28 11:23:51;;;;;;;;;;;;;;;26.19;40.19;99577.28;5076463;28;20339;-66
2023/09/28 11:26:17;;;;;;;;;;;;;;;26.31;40.03;99580.72;5089859;28;19963;-66
2023/09/28 11:28:44;;;;;;;;;;;;;;;26.18;39.62;99578.50;5091670;28;19912;-66
2023/09/28 11:31:11;;;;;;;;;;;;;;;26.31;39.85;99566.41;5087666;28;19922;-66
2023/09/28 11:33:38;;;;;;;;;;;;;;;26.38;40.13;99566.22;5085762;28;19912;-66
2023/09/28 11:36:04;;;;;;;;;;;;;;;26.58;39.44;99574.00;5076167;28;20394;-66
2023/09/28 11:38:30;;;;;;;;;;;;;;;26.74;39.36;99573.25;5078585;28;19915;-73
2023/09/28 11:40:56;;;;;;;;;;;;;;;26.85;38.84;99575.88;5083448;28;19912;-73
2023/09/28 11:43:21;;;;;;;;;;;;;;;26.81;38.42;99566.53;5080602;28;19931;-73
2023/09/28 11:45:47;;;;;;;;;;;;;;;26.90;38.55;99558.97;5088145;28;19916;-73
2023/09/28 11:48:15;;;;;;;;;;;;;;;27.11;38.46;99564.63;5090189;28;19916;-72
2023/09/28 11:50:41;;;;;;;;;;;;;;;27.27;38.27;99564.66;5087010;28;20008;-73
2023/09/28 11:53:10;;;;;;;;;;;;;;;27.51;37.65;99555.81;5090187;28;19947;-73
2023/09/28 11:55:36;;;;;;;;;;;;;;;27.61;37.49;99563.38;5088605;28;20002;-73
2023/09/28 11:58:02;;;;;;;;;;;;;;;27.40;37.38;99558.19;5081738;28;19912;-72
2023/09/28 12:00:28;;;;;;;;;;;;;;;27.46;38.07;99554.31;5091836;28;19928;-73
2023/09/28 12:02:54;;;;;;;;;;;;;;;27.49;37.82;99555.47;5092924;28;20360;-73
2023/09/28 12:05:20;;;;;;;;;;;;;;;27.47;37.75;99555.13;5094342;28;19927;-73
2023/09/28 12:07:45;;;;;;;;;;;;;;;27.47;37.67;99546.50;5094149;28;19916;-73
2023/09/28 12:10:14;;;;;;;;;;;;;;;27.51;37.46;99552.94;5093350;28;19969;-73
2023/09/28 12:12:40;;;;;;;;;;;;;;;27.60;37.78;99553.16;5090864;28;19916;-73
2023/09/28 12:15:11;;;;;;;;;;;;;;;27.58;37.56;99552.78;5087937;28;19919;-73
2023/09/28 12:17:40;;;;;;;;;;;;;;;27.48;37.59;99545.22;5087678;28;19923;-73
2023/09/28 12:20:06;;;;;;;;;;;;;;;27.52;37.38;99545.16;5093937;28;19912;-73
2023/09/28 12:22:33;;;;;;;;;;;;;;;27.53;37.43;99544.75;5092493;28;20382;-73
2023/09/28 12:24:58;;;;;;;;;;;;;;;27.56;36.93;99538.09;5094012;28;19968;-73
2023/09/28 12:27:24;;;;;;;;;;;;;;;26.93;38.00;99537.19;5092939;28;20401;-73
2023/09/28 12:29:50;;;;;;;;;;;;;;;26.56;38.50;99533.50;5089402;28;19974;-72
2023/09/28 12:32:15;;;;;;;;;;;;;;;27.19;39.03;99535.28;5089659;28;19947;-73
2023/09/28 12:34:41;;;;;;;;;;;;;;;27.60;37.67;99538.00;5089560;28;19966;-73
2023/09/28 12:37:07;;;;;;;;;;;;;;;27.94;36.83;99542.41;5093064;28;20015;-72
2023/09/28 12:39:33;;;;;;;;;;;;;;;27.72;36.03;99533.56;5092801;28;19959;-72
2023/09/28 12:41:58;;;;;;;;;;;;;;;27.68;36.33;99530.78;5092424;28;19920;-71